sensor_id;sensor_type;location;lat;lon;timestamp;pressure;altitude;pressure_sealevel;temperature;humidity
75996;BME280;64681;49.738;9.004;2024-02-26T00:00:12;97717.47;;;6.76;74.96
75996;BME280;64681;49.738;9.004;2024-02-26T00:02:37;97710.56;;;6.55;77.40
75996;BME280;64681;49.738;9.004;2024-02-26T00:05:07;97708.44;;;6.45;77.10
75996;BME280;64681;49.738;9.004;2024-02-26T00:07:33;97708.78;;;6.43;76.59
75996;BME280;64681;49.738;9.004;2024-02-26T00:09:58;97697.22;;;6.04;78.76
75996;BME280;64681;49.738;9.004;2024-02-26T00:12:24;97671.94;;;6.22;77.39
75996;BME280;64681;49.738;9.004;2024-02-26T00:14:49;97668.03;;;6.52;75.19
75996;BME280;64681;49.738;9.004;2024-02-26T00:17:15;97658.81;;;6.61;75.19
75996;BME280;64681;49.738;9.004;2024-02-26T00:19:41;97651.16;;;6.76;73.74
75996;BME280;64681;49.738;9.004;2024-02-26T00:22:07;97646.31;;;6.97;73.29
75996;BME280;64681;49.738;9.004;2024-02-26T00:24:33;97645.28;;;7.02;70.86
75996;BME280;64681;49.738;9.004;2024-02-26T00:26:59;97655.19;;;7.25;70.69
75996;BME280;64681;49.738;9.004;2024-02-26T00:29:24;97635.91;;;7.28;68.45
75996;BME280;64681;49.738;9.004;2024-02-26T00:31:51;97658.06;;;7.16;69.58
75996;BME280;64681;49.738;9.004;2024-02-26T00:34:16;97654.28;;;7.17;70.95
75996;BME280;64681;49.738;9.004;2024-02-26T00:36:42;97662.44;;;7.08;72.66
75996;BME280;64681;49.738;9.004;2024-02-26T00:39:07;97667.25;;;7.03;74.02
75996;BME280;64681;49.738;9.004;2024-02-26T00:41:33;97669.56;;;7.04;73.36
75996;BME280;64681;49.738;9.004;2024-02-26T00:43:58;97658.97;;;6.69;75.44
75996;BME280;64681;49.738;9.004;2024-02-26T00:46:24;97660.69;;;6.61;75.68
75996;BME280;64681;49.738;9.004;2024-02-26T00:48:50;97665.09;;;6.73;75.80
75996;BME280;64681;49.738;9.004;2024-02-26T00:51:15;97673.72;;;6.86;75.12
75996;BME280;64681;49.738;9.004;2024-02-26T00:53:41;97679.56;;;6.75;76.16
75996;BME280;64681;49.738;9.004;2024-02-26T00:56:06;97679.03;;;6.86;75.16
75996;BME280;64681;49.738;9.004;2024-02-26T00:58:32;97672.06;;;6.45;72.86
75996;BME280;64681;49.738;9.004;2024-02-26T01:00:57;97655.00;;;6.78;72.00
75996;BME280;64681;49.738;9.004;2024-02-26T01:03:23;97658.50;;;6.82;70.85
75996;BME280;64681;49.738;9.004;2024-02-26T01:05:48;97678.84;;;6.94;72.76
75996;BME280;64681;49.738;9.004;2024-02-26T01:08:14;97668.94;;;6.91;73.43
75996;BME280;64681;49.738;9.004;2024-02-26T01:10:39;97661.97;;;7.22;71.04
75996;BME280;64681;49.738;9.004;2024-02-26T01:13:05;97659.72;;;6.69;74.12
75996;BME280;64681;49.738;9.004;2024-02-26T01:15:30;97636.88;;;6.80;72.20
75996;BME280;64681;49.738;9.004;2024-02-26T01:17:55;97652.81;;;7.00;70.90
75996;BME280;64681;49.738;9.004;2024-02-26T01:20:21;97655.22;;;6.89;72.42
75996;BME280;64681;49.738;9.004;2024-02-26T01:22:46;97666.19;;;6.88;73.56
75996;BME280;64681;49.738;9.004;2024-02-26T01:25:12;97673.81;;;6.89;73.91
75996;BME280;64681;49.738;9.004;2024-02-26T01:27:38;97667.41;;;6.39;74.37
75996;BME280;64681;49.738;9.004;2024-02-26T01:30:05;97674.81;;;6.65;74.28
75996;BME280;64681;49.738;9.004;2024-02-26T01:32:31;97652.50;;;6.50;74.98
75996;BME280;64681;49.738;9.004;2024-02-26T01:34:57;97660.19;;;6.07;75.39
75996;BME280;64681;49.738;9.004;2024-02-26T01:37:22;97661.72;;;6.56;74.18
75996;BME280;64681;49.738;9.004;2024-02-26T01:39:48;97659.56;;;6.62;74.95
75996;BME280;64681;49.738;9.004;2024-02-26T01:42:14;97662.69;;;6.32;75.20
75996;BME280;64681;49.738;9.004;2024-02-26T01:44:39;97664.97;;;6.01;76.01
75996;BME280;64681;49.738;9.004;2024-02-26T01:47:11;97671.00;;;6.30;74.92
75996;BME280;64681;49.738;9.004;2024-02-26T01:49:39;97679.69;;;6.31;76.33
75996;BME280;64681;49.738;9.004;2024-02-26T01:52:06;97674.66;;;6.26;76.24
75996;BME280;64681;49.738;9.004;2024-02-26T01:54:35;97683.31;;;5.94;77.35
75996;BME280;64681;49.738;9.004;2024-02-26T01:57:03;97673.03;;;6.21;77.53
75996;BME280;64681;49.738;9.004;2024-02-26T01:59:29;97667.50;;;5.98;77.08
75996;BME280;64681;49.738;9.004;2024-02-26T02:01:58;97668.41;;;6.50;74.68
75996;BME280;64681;49.738;9.004;2024-02-26T02:04:27;97664.03;;;6.58;73.63
75996;BME280;64681;49.738;9.004;2024-02-26T02:06:53;97662.03;;;6.71;72.60
75996;BME280;64681;49.738;9.004;2024-02-26T02:09:19;97668.63;;;6.61;74.93
75996;BME280;64681;49.738;9.004;2024-02-26T02:11:46;97683.53;;;6.49;75.53
75996;BME280;64681;49.738;9.004;2024-02-26T02:14:13;97686.69;;;6.55;76.19
75996;BME280;64681;49.738;9.004;2024-02-26T02:16:39;97686.28;;;6.21;77.76
75996;BME280;64681;49.738;9.004;2024-02-26T02:19:04;97696.44;;;6.51;75.93
75996;BME280;64681;49.738;9.004;2024-02-26T02:21:30;97690.72;;;6.01;77.82
75996;BME280;64681;49.738;9.004;2024-02-26T02:23:55;97701.75;;;6.03;79.01
75996;BME280;64681;49.738;9.004;2024-02-26T02:26:21;97695.63;;;6.47;75.36
75996;BME280;64681;49.738;9.004;2024-02-26T02:28:47;97690.66;;;6.29;78.10
75996;BME280;64681;49.738;9.004;2024-02-26T02:31:15;97692.03;;;6.23;77.68
75996;BME280;64681;49.738;9.004;2024-02-26T02:33:41;97691.16;;;5.91;77.58
75996;BME280;64681;49.738;9.004;2024-02-26T02:36:06;97687.72;;;6.34;76.30
75996;BME280;64681;49.738;9.004;2024-02-26T02:38:36;97692.19;;;6.46;75.66
75996;BME280;64681;49.738;9.004;2024-02-26T02:41:02;97690.56;;;6.58;74.90
75996;BME280;64681;49.738;9.004;2024-02-26T02:43:27;97693.28;;;6.61;73.81
75996;BME280;64681;49.738;9.004;2024-02-26T02:45:52;97702.03;;;6.46;74.65
75996;BME280;64681;49.738;9.004;2024-02-26T02:48:18;97698.69;;;6.65;74.23
75996;BME280;64681;49.738;9.004;2024-02-26T02:50:43;97695.47;;;6.75;74.59
75996;BME280;64681;49.738;9.004;2024-02-26T02:53:09;97694.13;;;6.65;75.31
75996;BME280;64681;49.738;9.004;2024-02-26T02:55:35;97705.47;;;5.86;77.65
75996;BME280;64681;49.738;9.004;2024-02-26T02:58:00;97703.41;;;6.40;76.14
75996;BME280;64681;49.738;9.004;2024-02-26T03:00:26;97697.22;;;6.52;75.65
75996;BME280;64681;49.738;9.004;2024-02-26T03:02:51;97686.03;;;6.26;76.31
75996;BME280;64681;49.738;9.004;2024-02-26T03:05:17;97699.97;;;6.23;74.39
75996;BME280;64681;49.738;9.004;2024-02-26T03:07:42;97706.31;;;6.51;75.28
75996;BME280;64681;49.738;9.004;2024-02-26T03:10:08;97702.88;;;6.50;74.01
75996;BME280;64681;49.738;9.004;2024-02-26T03:12:34;97692.94;;;6.63;74.59
75996;BME280;64681;49.738;9.004;2024-02-26T03:15:00;97700.97;;;6.67;75.13
75996;BME280;64681;49.738;9.004;2024-02-26T03:17:31;97706.78;;;6.08;78.16
75996;BME280;64681;49.738;9.004;2024-02-26T03:19:56;97710.66;;;6.43;76.86
75996;BME280;64681;49.738;9.004;2024-02-26T03:22:22;97691.03;;;6.79;73.99
75996;BME280;64681;49.738;9.004;2024-02-26T03:24:48;97710.75;;;6.62;75.46
75996;BME280;64681;49.738;9.004;2024-02-26T03:27:14;97692.50;;;6.77;74.93
75996;BME280;64681;49.738;9.004;2024-02-26T03:29:40;97705.25;;;6.71;74.56
75996;BME280;64681;49.738;9.004;2024-02-26T03:32:05;97715.88;;;6.23;77.24
75996;BME280;64681;49.738;9.004;2024-02-26T03:34:32;97700.41;;;6.41;76.21
75996;BME280;64681;49.738;9.004;2024-02-26T03:37:00;97696.63;;;6.42;76.26
75996;BME280;64681;49.738;9.004;2024-02-26T03:39:25;97697.66;;;6.38;74.85
75996;BME280;64681;49.738;9.004;2024-02-26T03:41:51;97699.09;;;5.75;79.00
75996;BME280;64681;49.738;9.004;2024-02-26T03:44:16;97694.84;;;6.30;77.70
75996;BME280;64681;49.738;9.004;2024-02-26T03:46:42;97697.22;;;6.36;77.63
75996;BME280;64681;49.738;9.004;2024-02-26T03:49:08;97700.03;;;6.11;79.11
75996;BME280;64681;49.738;9.004;2024-02-26T03:51:33;97710.31;;;6.44;77.44
75996;BME280;64681;49.738;9.004;2024-02-26T03:53:59;97706.78;;;6.56;77.64
75996;BME280;64681;49.738;9.004;2024-02-26T03:56:26;97703.31;;;6.52;77.75
75996;BME280;64681;49.738;9.004;2024-02-26T03:58:52;97711.53;;;6.47;78.55
75996;BME280;64681;49.738;9.004;2024-02-26T04:01:17;97710.75;;;6.46;79.30
75996;BME280;64681;49.738;9.004;2024-02-26T04:03:42;97705.25;;;6.55;78.95
75996;BME280;64681;49.738;9.004;2024-02-26T04:06:09;97702.94;;;6.22;82.38
75996;BME280;64681;49.738;9.004;2024-02-26T04:08:48;97700.75;;;6.40;80.84
75996;BME280;64681;49.738;9.004;2024-02-26T04:11:14;97715.59;;;6.44;80.62
75996;BME280;64681;49.738;9.004;2024-02-26T04:13:46;97712.63;;;6.30;82.67
75996;BME280;64681;49.738;9.004;2024-02-26T04:16:12;97727.31;;;6.27;83.43
75996;BME280;64681;49.738;9.004;2024-02-26T04:18:37;97721.25;;;6.27;83.20
75996;BME280;64681;49.738;9.004;2024-02-26T04:21:04;97718.44;;;6.20;84.04
75996;BME280;64681;49.738;9.004;2024-02-26T04:23:30;97712.22;;;6.28;83.56
75996;BME280;64681;49.738;9.004;2024-02-26T04:25:56;97719.03;;;6.29;84.22
75996;BME280;64681;49.738;9.004;2024-02-26T04:28:21;97726.44;;;6.07;86.49
75996;BME280;64681;49.738;9.004;2024-02-26T04:30:47;97722.59;;;6.05;86.52
75996;BME280;64681;49.738;9.004;2024-02-26T04:33:13;97711.56;;;6.02;86.50
75996;BME280;64681;49.738;9.004;2024-02-26T04:35:38;97727.13;;;6.04;87.63
75996;BME280;64681;49.738;9.004;2024-02-26T04:38:04;97729.53;;;6.09;86.65
75996;BME280;64681;49.738;9.004;2024-02-26T04:40:29;97722.16;;;6.02;87.25
75996;BME280;64681;49.738;9.004;2024-02-26T04:42:55;97728.50;;;6.14;86.82
75996;BME280;64681;49.738;9.004;2024-02-26T04:45:20;97722.03;;;6.11;86.97
75996;BME280;64681;49.738;9.004;2024-02-26T04:47:46;97720.13;;;5.83;88.91
75996;BME280;64681;49.738;9.004;2024-02-26T04:50:12;97715.75;;;6.04;87.76
75996;BME280;64681;49.738;9.004;2024-02-26T04:52:37;97721.75;;;6.16;87.03
75996;BME280;64681;49.738;9.004;2024-02-26T04:55:03;97726.44;;;6.07;88.29
75996;BME280;64681;49.738;9.004;2024-02-26T04:57:28;97728.34;;;6.07;87.74
75996;BME280;64681;49.738;9.004;2024-02-26T04:59:54;97725.88;;;6.14;87.42
75996;BME280;64681;49.738;9.004;2024-02-26T05:02:19;97723.22;;;5.85;89.85
75996;BME280;64681;49.738;9.004;2024-02-26T05:04:45;97727.03;;;6.00;88.67
75996;BME280;64681;49.738;9.004;2024-02-26T05:07:10;97719.38;;;6.11;88.09
75996;BME280;64681;49.738;9.004;2024-02-26T05:09:36;97718.19;;;5.96;90.27
75996;BME280;64681;49.738;9.004;2024-02-26T05:12:01;97712.66;;;6.01;88.77
75996;BME280;64681;49.738;9.004;2024-02-26T05:14:27;97726.63;;;6.14;88.44
75996;BME280;64681;49.738;9.004;2024-02-26T05:16:52;97717.56;;;5.99;89.33
75996;BME280;64681;49.738;9.004;2024-02-26T05:19:18;97723.41;;;5.93;89.75
75996;BME280;64681;49.738;9.004;2024-02-26T05:21:43;97729.56;;;5.97;90.02
75996;BME280;64681;49.738;9.004;2024-02-26T05:24:09;97727.81;;;6.01;89.12
75996;BME280;64681;49.738;9.004;2024-02-26T05:26:35;97729.13;;;5.95;90.39
75996;BME280;64681;49.738;9.004;2024-02-26T05:29:00;97728.91;;;6.00;90.28
75996;BME280;64681;49.738;9.004;2024-02-26T05:31:26;97724.31;;;6.13;88.97
75996;BME280;64681;49.738;9.004;2024-02-26T05:33:52;97718.50;;;6.07;88.37
75996;BME280;64681;49.738;9.004;2024-02-26T05:36:22;97711.16;;;5.88;88.09
75996;BME280;64681;49.738;9.004;2024-02-26T05:38:48;97713.28;;;5.82;88.96
75996;BME280;64681;49.738;9.004;2024-02-26T05:41:18;97716.09;;;6.02;85.02
75996;BME280;64681;49.738;9.004;2024-02-26T05:43:49;97714.66;;;6.05;84.83
75996;BME280;64681;49.738;9.004;2024-02-26T05:46:17;97714.50;;;5.85;86.46
75996;BME280;64681;49.738;9.004;2024-02-26T05:48:43;97721.66;;;5.84;87.17
75996;BME280;64681;49.738;9.004;2024-02-26T05:51:09;97730.41;;;5.85;88.52
75996;BME280;64681;49.738;9.004;2024-02-26T05:53:34;97728.94;;;5.88;89.60
75996;BME280;64681;49.738;9.004;2024-02-26T05:56:00;97728.22;;;5.75;91.12
75996;BME280;64681;49.738;9.004;2024-02-26T05:58:25;97732.63;;;5.83;91.12
75996;BME280;64681;49.738;9.004;2024-02-26T06:00:51;97737.03;;;5.79;92.00
75996;BME280;64681;49.738;9.004;2024-02-26T06:03:16;97740.41;;;5.92;90.78
75996;BME280;64681;49.738;9.004;2024-02-26T06:05:42;97740.94;;;5.97;89.81
75996;BME280;64681;49.738;9.004;2024-02-26T06:08:07;97740.94;;;5.97;89.75
75996;BME280;64681;49.738;9.004;2024-02-26T06:10:33;97753.13;;;5.86;91.61
75996;BME280;64681;49.738;9.004;2024-02-26T06:12:58;97746.56;;;5.67;93.27
75996;BME280;64681;49.738;9.004;2024-02-26T06:15:23;97756.44;;;5.54;93.50
75996;BME280;64681;49.738;9.004;2024-02-26T06:17:49;97761.63;;;5.51;94.46
75996;BME280;64681;49.738;9.004;2024-02-26T06:20:14;97766.91;;;5.51;94.58
75996;BME280;64681;49.738;9.004;2024-02-26T06:22:40;97758.53;;;5.49;93.72
75996;BME280;64681;49.738;9.004;2024-02-26T06:25:07;97768.97;;;5.70;92.75
75996;BME280;64681;49.738;9.004;2024-02-26T06:27:32;97771.81;;;5.77;92.87
75996;BME280;64681;49.738;9.004;2024-02-26T06:29:58;97774.34;;;5.74;92.98
75996;BME280;64681;49.738;9.004;2024-02-26T06:32:23;97783.28;;;5.81;92.14
75996;BME280;64681;49.738;9.004;2024-02-26T06:34:49;97779.63;;;5.86;92.05
75996;BME280;64681;49.738;9.004;2024-02-26T06:37:14;97775.84;;;5.87;92.38
75996;BME280;64681;49.738;9.004;2024-02-26T06:39:40;97781.66;;;5.64;94.39
75996;BME280;64681;49.738;9.004;2024-02-26T06:42:06;97784.28;;;5.77;93.60
75996;BME280;64681;49.738;9.004;2024-02-26T06:44:32;97790.78;;;5.79;93.20
75996;BME280;64681;49.738;9.004;2024-02-26T06:47:01;97789.53;;;5.89;93.24
75996;BME280;64681;49.738;9.004;2024-02-26T06:49:27;97792.75;;;5.82;93.54
75996;BME280;64681;49.738;9.004;2024-02-26T06:51:53;97792.53;;;5.47;94.67
75996;BME280;64681;49.738;9.004;2024-02-26T06:54:19;97792.13;;;5.73;92.73
75996;BME280;64681;49.738;9.004;2024-02-26T06:56:45;97803.84;;;5.72;92.54
75996;BME280;64681;49.738;9.004;2024-02-26T06:59:10;97817.38;;;5.83;92.60
75996;BME280;64681;49.738;9.004;2024-02-26T07:01:36;97818.66;;;5.89;92.30
75996;BME280;64681;49.738;9.004;2024-02-26T07:04:01;97814.66;;;5.95;91.38
75996;BME280;64681;49.738;9.004;2024-02-26T07:06:27;97818.63;;;5.73;93.58
75996;BME280;64681;49.738;9.004;2024-02-26T07:08:52;97823.56;;;5.75;93.51
75996;BME280;64681;49.738;9.004;2024-02-26T07:11:18;97837.91;;;5.86;93.50
75996;BME280;64681;49.738;9.004;2024-02-26T07:13:48;97825.41;;;5.99;92.48
75996;BME280;64681;49.738;9.004;2024-02-26T07:16:15;97826.47;;;6.10;92.53
75996;BME280;64681;49.738;9.004;2024-02-26T07:18:40;97839.72;;;6.10;93.20
75996;BME280;64681;49.738;9.004;2024-02-26T07:21:05;97840.34;;;6.20;92.67
75996;BME280;64681;49.738;9.004;2024-02-26T07:23:31;97838.13;;;6.22;92.63
75996;BME280;64681;49.738;9.004;2024-02-26T07:25:57;97828.84;;;6.28;92.04
75996;BME280;64681;49.738;9.004;2024-02-26T07:28:23;97832.25;;;6.28;91.84
75996;BME280;64681;49.738;9.004;2024-02-26T07:30:49;97831.75;;;6.39;90.18
75996;BME280;64681;49.738;9.004;2024-02-26T07:33:14;97833.19;;;6.36;90.13
75996;BME280;64681;49.738;9.004;2024-02-26T07:35:40;97826.94;;;6.28;89.24
75996;BME280;64681;49.738;9.004;2024-02-26T07:38:05;97841.22;;;6.24;91.69
75996;BME280;64681;49.738;9.004;2024-02-26T07:40:31;97833.88;;;6.33;91.07
75996;BME280;64681;49.738;9.004;2024-02-26T07:42:56;97832.91;;;6.25;92.17
75996;BME280;64681;49.738;9.004;2024-02-26T07:45:22;97839.19;;;6.49;91.70
75996;BME280;64681;49.738;9.004;2024-02-26T07:47:48;97837.91;;;6.43;93.23
75996;BME280;64681;49.738;9.004;2024-02-26T07:50:13;97840.13;;;6.41;93.32
75996;BME280;64681;49.738;9.004;2024-02-26T07:52:39;97842.25;;;6.79;91.55
75996;BME280;64681;49.738;9.004;2024-02-26T07:55:05;97835.47;;;7.14;88.54
75996;BME280;64681;49.738;9.004;2024-02-26T07:57:33;97844.91;;;7.11;89.03
75996;BME280;64681;49.738;9.004;2024-02-26T08:00:02;97842.66;;;7.29;87.68
75996;BME280;64681;49.738;9.004;2024-02-26T08:02:28;97841.72;;;7.22;90.00
75996;BME280;64681;49.738;9.004;2024-02-26T08:04:54;97842.97;;;7.28;89.90
75996;BME280;64681;49.738;9.004;2024-02-26T08:07:19;97846.16;;;7.34;88.20
75996;BME280;64681;49.738;9.004;2024-02-26T08:09:46;97847.84;;;7.42;88.05
75996;BME280;64681;49.738;9.004;2024-02-26T08:12:12;97852.41;;;7.41;88.45
75996;BME280;64681;49.738;9.004;2024-02-26T08:14:37;97851.13;;;7.35;89.96
75996;BME280;64681;49.738;9.004;2024-02-26T08:17:03;97865.16;;;7.36;89.33
75996;BME280;64681;49.738;9.004;2024-02-26T08:19:28;97856.44;;;7.35;89.03
75996;BME280;64681;49.738;9.004;2024-02-26T08:21:54;97862.44;;;7.32;90.66
75996;BME280;64681;49.738;9.004;2024-02-26T08:24:19;97855.69;;;6.87;92.29
75996;BME280;64681;49.738;9.004;2024-02-26T08:26:45;97863.47;;;6.79;94.21
75996;BME280;64681;49.738;9.004;2024-02-26T08:29:10;97871.19;;;7.17;91.92
75996;BME280;64681;49.738;9.004;2024-02-26T08:31:36;97872.28;;;7.32;90.48
75996;BME280;64681;49.738;9.004;2024-02-26T08:34:03;97868.00;;;7.27;91.02
75996;BME280;64681;49.738;9.004;2024-02-26T08:36:30;97874.75;;;7.40;90.57
75996;BME280;64681;49.738;9.004;2024-02-26T08:38:56;97883.94;;;7.63;90.03
75996;BME280;64681;49.738;9.004;2024-02-26T08:41:22;97877.53;;;7.64;90.29
75996;BME280;64681;49.738;9.004;2024-02-26T08:43:47;97880.41;;;7.74;89.12
75996;BME280;64681;49.738;9.004;2024-02-26T08:46:13;97884.44;;;7.84;87.94
75996;BME280;64681;49.738;9.004;2024-02-26T08:48:39;97875.97;;;7.98;87.72
75996;BME280;64681;49.738;9.004;2024-02-26T08:51:07;97873.75;;;8.00;88.63
75996;BME280;64681;49.738;9.004;2024-02-26T08:53:34;97864.31;;;8.22;87.83
75996;BME280;64681;49.738;9.004;2024-02-26T08:55:59;97866.03;;;8.15;85.87
75996;BME280;64681;49.738;9.004;2024-02-26T08:58:24;97863.19;;;8.23;83.87
75996;BME280;64681;49.738;9.004;2024-02-26T09:00:50;97866.88;;;8.38;83.16
75996;BME280;64681;49.738;9.004;2024-02-26T09:03:15;97872.97;;;8.59;80.64
75996;BME280;64681;49.738;9.004;2024-02-26T09:05:42;97864.19;;;8.78;79.19
75996;BME280;64681;49.738;9.004;2024-02-26T09:08:07;97856.72;;;9.10;78.14
75996;BME280;64681;49.738;9.004;2024-02-26T09:10:33;97864.84;;;9.44;77.31
75996;BME280;64681;49.738;9.004;2024-02-26T09:12:58;97872.94;;;9.82;74.18
75996;BME280;64681;49.738;9.004;2024-02-26T09:15:24;97865.16;;;10.00;72.69
75996;BME280;64681;49.738;9.004;2024-02-26T09:17:49;97875.53;;;10.05;70.28
75996;BME280;64681;49.738;9.004;2024-02-26T09:20:15;97870.88;;;9.68;71.91
75996;BME280;64681;49.738;9.004;2024-02-26T09:22:48;97866.06;;;9.50;73.62
75996;BME280;64681;49.738;9.004;2024-02-26T09:25:14;97887.16;;;9.36;74.52
75996;BME280;64681;49.738;9.004;2024-02-26T09:27:41;97875.56;;;9.25;74.97
75996;BME280;64681;49.738;9.004;2024-02-26T09:30:12;97885.84;;;9.23;75.32
75996;BME280;64681;49.738;9.004;2024-02-26T09:32:39;97893.94;;;9.07;74.15
75996;BME280;64681;49.738;9.004;2024-02-26T09:35:05;97888.31;;;9.12;74.35
75996;BME280;64681;49.738;9.004;2024-02-26T09:37:31;97902.91;;;8.75;74.93
75996;BME280;64681;49.738;9.004;2024-02-26T09:39:56;97901.50;;;9.05;74.50
75996;BME280;64681;49.738;9.004;2024-02-26T09:42:25;97894.47;;;9.43;73.82
75996;BME280;64681;49.738;9.004;2024-02-26T09:44:54;97887.91;;;9.90;73.13
75996;BME280;64681;49.738;9.004;2024-02-26T09:47:23;97900.22;;;10.29;73.11
75996;BME280;64681;49.738;9.004;2024-02-26T09:49:49;97903.28;;;10.01;75.57
75996;BME280;64681;49.738;9.004;2024-02-26T09:52:15;97901.97;;;10.18;74.12
75996;BME280;64681;49.738;9.004;2024-02-26T09:54:49;97899.66;;;10.47;69.88
75996;BME280;64681;49.738;9.004;2024-02-26T09:57:16;97911.34;;;10.04;71.99
75996;BME280;64681;49.738;9.004;2024-02-26T09:59:43;97912.63;;;10.18;72.30
75996;BME280;64681;49.738;9.004;2024-02-26T10:02:13;97912.81;;;10.32;71.81
75996;BME280;64681;49.738;9.004;2024-02-26T10:04:42;97917.94;;;10.44;70.66
75996;BME280;64681;49.738;9.004;2024-02-26T10:07:12;97916.94;;;10.26;69.86
75996;BME280;64681;49.738;9.004;2024-02-26T10:09:39;97918.69;;;9.57;72.02
75996;BME280;64681;49.738;9.004;2024-02-26T10:12:07;97923.97;;;10.07;71.50
75996;BME280;64681;49.738;9.004;2024-02-26T10:14:33;97911.19;;;10.54;70.95
75996;BME280;64681;49.738;9.004;2024-02-26T10:16:59;97918.88;;;11.01;69.97
75996;BME280;64681;49.738;9.004;2024-02-26T10:19:30;97908.94;;;11.46;68.69
75996;BME280;64681;49.738;9.004;2024-02-26T10:21:57;97911.00;;;10.74;68.00
75996;BME280;64681;49.738;9.004;2024-02-26T10:24:23;97921.63;;;10.70;67.82
75996;BME280;64681;49.738;9.004;2024-02-26T10:26:49;97922.38;;;11.08;66.12
75996;BME280;64681;49.738;9.004;2024-02-26T10:29:14;97918.38;;;11.29;68.12
75996;BME280;64681;49.738;9.004;2024-02-26T10:31:43;97915.88;;;11.54;64.16
75996;BME280;64681;49.738;9.004;2024-02-26T10:34:08;97907.22;;;11.20;66.16
75996;BME280;64681;49.738;9.004;2024-02-26T10:36:34;97911.22;;;10.96;66.49
75996;BME280;64681;49.738;9.004;2024-02-26T10:39:06;97918.03;;;10.52;66.46
75996;BME280;64681;49.738;9.004;2024-02-26T10:41:33;97906.34;;;10.33;68.93
75996;BME280;64681;49.738;9.004;2024-02-26T10:43:59;97916.84;;;10.19;68.26
75996;BME280;64681;49.738;9.004;2024-02-26T10:46:28;97918.63;;;10.72;67.30
75996;BME280;64681;49.738;9.004;2024-02-26T10:48:54;97929.47;;;11.35;65.04
75996;BME280;64681;49.738;9.004;2024-02-26T10:51:27;97925.16;;;11.71;65.49
75996;BME280;64681;49.738;9.004;2024-02-26T10:53:56;97945.31;;;12.21;62.33
75996;BME280;64681;49.738;9.004;2024-02-26T10:56:28;97930.72;;;12.11;61.78
75996;BME280;64681;49.738;9.004;2024-02-26T10:58:57;97931.31;;;11.76;62.84
75996;BME280;64681;49.738;9.004;2024-02-26T11:01:24;97919.63;;;11.46;63.22
75996;BME280;64681;49.738;9.004;2024-02-26T11:03:51;97927.94;;;11.90;64.32
75996;BME280;64681;49.738;9.004;2024-02-26T11:06:19;97911.41;;;11.73;62.65
75996;BME280;64681;49.738;9.004;2024-02-26T11:08:49;97918.28;;;11.74;64.09
75996;BME280;64681;49.738;9.004;2024-02-26T11:11:16;97914.97;;;10.87;65.54
75996;BME280;64681;49.738;9.004;2024-02-26T11:13:46;97925.81;;;11.05;65.35
75996;BME280;64681;49.738;9.004;2024-02-26T11:16:17;97928.28;;;10.19;69.46
75996;BME280;64681;49.738;9.004;2024-02-26T11:18:46;97925.78;;;10.03;69.58
75996;BME280;64681;49.738;9.004;2024-02-26T11:21:15;97931.59;;;9.82;70.56
75996;BME280;64681;49.738;9.004;2024-02-26T11:23:42;97915.09;;;10.64;68.41
75996;BME280;64681;49.738;9.004;2024-02-26T11:26:10;97937.34;;;10.11;69.21
75996;BME280;64681;49.738;9.004;2024-02-26T11:28:38;97939.91;;;10.34;69.49
75996;BME280;64681;49.738;9.004;2024-02-26T11:31:05;97926.19;;;11.56;66.22
75996;BME280;64681;49.738;9.004;2024-02-26T11:33:33;97928.06;;;12.11;64.88
75996;BME280;64681;49.738;9.004;2024-02-26T11:36:02;97926.88;;;12.05;63.31
75996;BME280;64681;49.738;9.004;2024-02-26T11:38:28;97929.84;;;12.77;61.36
75996;BME280;64681;49.738;9.004;2024-02-26T11:40:54;97933.16;;;12.42;62.32
75996;BME280;64681;49.738;9.004;2024-02-26T11:43:49;97932.53;;;11.93;64.23
75996;BME280;64681;49.738;9.004;2024-02-26T11:46:25;97938.19;;;11.84;64.28
75996;BME280;64681;49.738;9.004;2024-02-26T11:48:54;97942.97;;;11.49;64.62
75996;BME280;64681;49.738;9.004;2024-02-26T11:51:25;97930.25;;;10.53;69.28
75996;BME280;64681;49.738;9.004;2024-02-26T11:53:51;97929.72;;;10.40;69.40
75996;BME280;64681;49.738;9.004;2024-02-26T11:58:45;97932.09;;;10.86;69.00
75996;BME280;64681;49.738;9.004;2024-02-26T12:01:39;97923.44;;;10.59;70.20
75996;BME280;64681;49.738;9.004;2024-02-26T12:04:07;97929.25;;;10.68;69.27
75996;BME280;64681;49.738;9.004;2024-02-26T12:06:42;97930.34;;;11.05;68.52
75996;BME280;64681;49.738;9.004;2024-02-26T12:09:08;97930.22;;;10.90;69.20
75996;BME280;64681;49.738;9.004;2024-02-26T12:11:37;97930.31;;;11.46;67.66
75996;BME280;64681;49.738;9.004;2024-02-26T12:14:03;97931.63;;;11.70;64.55
75996;BME280;64681;49.738;9.004;2024-02-26T12:16:36;97930.19;;;11.84;65.99
75996;BME280;64681;49.738;9.004;2024-02-26T12:19:07;97944.06;;;11.00;67.69
75996;BME280;64681;49.738;9.004;2024-02-26T12:21:34;97950.16;;;11.00;68.63
75996;BME280;64681;49.738;9.004;2024-02-26T12:24:12;97943.81;;;10.74;69.39
75996;BME280;64681;49.738;9.004;2024-02-26T12:26:42;97940.84;;;10.83;68.06
75996;BME280;64681;49.738;9.004;2024-02-26T12:29:07;97934.44;;;11.33;67.63
75996;BME280;64681;49.738;9.004;2024-02-26T12:31:33;97941.75;;;11.43;66.85
75996;BME280;64681;49.738;9.004;2024-02-26T12:34:00;97941.63;;;11.77;65.71
75996;BME280;64681;49.738;9.004;2024-02-26T12:36:26;97953.91;;;11.89;65.17
75996;BME280;64681;49.738;9.004;2024-02-26T12:42:32;97957.59;;;11.21;67.32
75996;BME280;64681;49.738;9.004;2024-02-26T12:50:01;97958.78;;;11.76;66.02
75996;BME280;64681;49.738;9.004;2024-02-26T12:56:44;97978.06;;;11.48;65.20
75996;BME280;64681;49.738;9.004;2024-02-26T12:59:27;97964.59;;;11.85;64.73
75996;BME280;64681;49.738;9.004;2024-02-26T13:01:55;97981.22;;;11.16;66.71
75996;BME280;64681;49.738;9.004;2024-02-26T13:04:44;97985.88;;;11.22;67.89
75996;BME280;64681;49.738;9.004;2024-02-26T13:11:13;97966.81;;;10.86;68.66
75996;BME280;64681;49.738;9.004;2024-02-26T13:16:34;97984.63;;;11.13;67.94
75996;BME280;64681;49.738;9.004;2024-02-26T13:19:10;97970.53;;;11.61;66.26
75996;BME280;64681;49.738;9.004;2024-02-26T13:21:36;97986.56;;;11.61;66.69
75996;BME280;64681;49.738;9.004;2024-02-26T13:24:01;97978.19;;;12.22;64.11
75996;BME280;64681;49.738;9.004;2024-02-26T13:26:27;97974.13;;;11.83;65.88